sensor_id;sensor_type;location;lat;lon;timestamp;temperature;humidity
9699;DHT22;10089;47.876;8.346;2023-02-28T00:02:18;-4.60;99.90
9699;DHT22;10089;47.876;8.346;2023-02-28T00:04:43;-4.40;99.90
9699;DHT22;10089;47.876;8.346;2023-02-28T00:07:09;-4.50;99.90
9699;DHT22;10089;47.876;8.346;2023-02-28T00:09:35;-4.50;99.90
9699;DHT22;10089;47.876;8.346;2023-02-28T00:12:01;-4.40;99.90
9699;DHT22;10089;47.876;8.346;2023-02-28T00:14:36;-4.30;1.00
9699;DHT22;10089;47.876;8.346;2023-02-28T00:17:02;-4.50;99.90
9699;DHT22;10089;47.876;8.346;2023-02-28T00:19:28;-4.40;1.00
9699;DHT22;10089;47.876;8.346;2023-02-28T00:21:53;-4.50;1.00
9699;DHT22;10089;47.876;8.346;2023-02-28T00:24:19;-4.40;1.00
9699;DHT22;10089;47.876;8.346;2023-02-28T00:26:47;-4.50;1.00
9699;DHT22;10089;47.876;8.346;2023-02-28T00:29:12;-4.50;1.00
9699;DHT22;10089;47.876;8.346;2023-02-28T00:31:38;-4.40;1.00
9699;DHT22;10089;47.876;8.346;2023-02-28T00:34:04;-4.40;1.00
9699;DHT22;10089;47.876;8.346;2023-02-28T00:36:29;-4.40;1.00
9699;DHT22;10089;47.876;8.346;2023-02-28T00:38:55;-4.40;1.00
9699;DHT22;10089;47.876;8.346;2023-02-28T00:41:21;-4.50;1.00
9699;DHT22;10089;47.876;8.346;2023-02-28T00:43:46;-4.40;1.00
9699;DHT22;10089;47.876;8.346;2023-02-28T00:46:12;-4.40;1.00
9699;DHT22;10089;47.876;8.346;2023-02-28T00:48:38;-4.40;1.00
9699;DHT22;10089;47.876;8.346;2023-02-28T00:51:04;-4.40;1.00
9699;DHT22;10089;47.876;8.346;2023-02-28T00:53:30;-4.40;1.00
9699;DHT22;10089;47.876;8.346;2023-02-28T00:55:57;-4.40;1.00
9699;DHT22;10089;47.876;8.346;2023-02-28T00:58:24;-4.40;1.00
9699;DHT22;10089;47.876;8.346;2023-02-28T01:00:51;-4.40;1.00
9699;DHT22;10089;47.876;8.346;2023-02-28T01:03:19;-4.40;1.00
9699;DHT22;10089;47.876;8.346;2023-02-28T01:05:45;-4.40;1.00
9699;DHT22;10089;47.876;8.346;2023-02-28T01:08:11;-4.40;1.00
9699;DHT22;10089;47.876;8.346;2023-02-28T01:10:37;-4.40;1.00
9699;DHT22;10089;47.876;8.346;2023-02-28T01:13:04;-4.40;1.00
9699;DHT22;10089;47.876;8.346;2023-02-28T01:15:29;-4.40;1.00
9699;DHT22;10089;47.876;8.346;2023-02-28T01:17:57;-4.50;1.00
9699;DHT22;10089;47.876;8.346;2023-02-28T01:20:23;-4.50;1.00
9699;DHT22;10089;47.876;8.346;2023-02-28T01:22:49;-4.50;1.00
9699;DHT22;10089;47.876;8.346;2023-02-28T01:25:15;-4.50;1.00
9699;DHT22;10089;47.876;8.346;2023-02-28T01:27:40;-4.50;1.00
9699;DHT22;10089;47.876;8.346;2023-02-28T01:30:08;-4.40;1.00
9699;DHT22;10089;47.876;8.346;2023-02-28T01:32:34;-4.40;1.00
9699;DHT22;10089;47.876;8.346;2023-02-28T01:35:00;-4.40;1.00
9699;DHT22;10089;47.876;8.346;2023-02-28T01:37:25;-4.50;1.00
9699;DHT22;10089;47.876;8.346;2023-02-28T01:39:51;-4.40;1.00
9699;DHT22;10089;47.876;8.346;2023-02-28T01:42:17;-4.40;1.00
9699;DHT22;10089;47.876;8.346;2023-02-28T01:47:36;-4.50;1.00
9699;DHT22;10089;47.876;8.346;2023-02-28T01:50:07;-4.50;1.00
9699;DHT22;10089;47.876;8.346;2023-02-28T01:52:33;-4.50;1.00
9699;DHT22;10089;47.876;8.346;2023-02-28T01:55:02;-4.50;1.00
9699;DHT22;10089;47.876;8.346;2023-02-28T01:57:34;-4.40;16.30
9699;DHT22;10089;47.876;8.346;2023-02-28T02:00:16;-4.40;18.40
9699;DHT22;10089;47.876;8.346;2023-02-28T02:02:46;-4.50;40.80
9699;DHT22;10089;47.876;8.346;2023-02-28T02:05:16;-4.60;67.70
9699;DHT22;10089;47.876;8.346;2023-02-28T02:07:45;-4.40;88.50
9699;DHT22;10089;47.876;8.346;2023-02-28T02:10:19;-4.50;93.80
9699;DHT22;10089;47.876;8.346;2023-02-28T02:18:17;-4.60;96.80
9699;DHT22;10089;47.876;8.346;2023-02-28T02:40:19;-4.60;99.40
9699;DHT22;10089;47.876;8.346;2023-02-28T02:45:39;-4.50;91.60
9699;DHT22;10089;47.876;8.346;2023-02-28T02:48:10;-4.20;88.50
9699;DHT22;10089;47.876;8.346;2023-02-28T02:50:42;-4.30;75.50
9699;DHT22;10089;47.876;8.346;2023-02-28T02:53:10;-4.30;93.50
9699;DHT22;10089;47.876;8.346;2023-02-28T02:55:41;-4.50;92.50
9699;DHT22;10089;47.876;8.346;2023-02-28T02:58:16;-4.70;68.10
9699;DHT22;10089;47.876;8.346;2023-02-28T03:00:50;-4.60;82.80
9699;DHT22;10089;47.876;8.346;2023-02-28T03:03:18;-4.60;83.90
9699;DHT22;10089;47.876;8.346;2023-02-28T03:05:50;-4.60;99.60
9699;DHT22;10089;47.876;8.346;2023-02-28T03:08:16;-4.60;99.90
9699;DHT22;10089;47.876;8.346;2023-02-28T03:10:44;-4.60;89.20
9699;DHT22;10089;47.876;8.346;2023-02-28T03:16:12;-4.50;81.90
9699;DHT22;10089;47.876;8.346;2023-02-28T03:21:43;-4.60;57.90
9699;DHT22;10089;47.876;8.346;2023-02-28T03:24:34;-4.60;60.00
9699;DHT22;10089;47.876;8.346;2023-02-28T03:27:25;-4.70;57.50
9699;DHT22;10089;47.876;8.346;2023-02-28T03:30:03;-4.70;56.50
9699;DHT22;10089;47.876;8.346;2023-02-28T03:32:35;-4.70;69.20
9699;DHT22;10089;47.876;8.346;2023-02-28T03:35:11;-4.70;65.20
9699;DHT22;10089;47.876;8.346;2023-02-28T03:37:42;-4.70;47.30
9699;DHT22;10089;47.876;8.346;2023-02-28T03:40:14;-4.60;65.40
9699;DHT22;10089;47.876;8.346;2023-02-28T03:42:44;-4.70;54.60
9699;DHT22;10089;47.876;8.346;2023-02-28T03:45:15;-4.60;68.70
9699;DHT22;10089;47.876;8.346;2023-02-28T03:47:50;-4.60;66.80
9699;DHT22;10089;47.876;8.346;2023-02-28T03:51:02;-4.60;37.40
9699;DHT22;10089;47.876;8.346;2023-02-28T03:53:21;-4.60;61.80
9699;DHT22;10089;47.876;8.346;2023-02-28T03:55:52;-4.60;67.60
9699;DHT22;10089;47.876;8.346;2023-02-28T03:58:30;-4.70;46.60
9699;DHT22;10089;47.876;8.346;2023-02-28T04:01:18;-4.80;42.00
9699;DHT22;10089;47.876;8.346;2023-02-28T04:03:45;-4.80;63.60
9699;DHT22;10089;47.876;8.346;2023-02-28T04:06:20;-4.70;58.00
9699;DHT22;10089;47.876;8.346;2023-02-28T04:08:47;-4.70;34.80
9699;DHT22;10089;47.876;8.346;2023-02-28T04:14:01;-4.80;80.60
9699;DHT22;10089;47.876;8.346;2023-02-28T04:16:28;-4.70;56.80
9699;DHT22;10089;47.876;8.346;2023-02-28T04:18:54;-4.70;63.30
9699;DHT22;10089;47.876;8.346;2023-02-28T04:21:56;-4.60;57.20
9699;DHT22;10089;47.876;8.346;2023-02-28T04:24:25;-4.70;52.40
9699;DHT22;10089;47.876;8.346;2023-02-28T04:26:53;-4.70;59.40
9699;DHT22;10089;47.876;8.346;2023-02-28T04:29:28;-4.70;75.70
9699;DHT22;10089;47.876;8.346;2023-02-28T04:31:55;-4.70;77.90
9699;DHT22;10089;47.876;8.346;2023-02-28T04:34:23;-4.60;93.30
9699;DHT22;10089;47.876;8.346;2023-02-28T04:36:50;-4.60;99.90
9699;DHT22;10089;47.876;8.346;2023-02-28T04:39:16;-4.70;99.90
9699;DHT22;10089;47.876;8.346;2023-02-28T04:41:44;-4.70;99.90
9699;DHT22;10089;47.876;8.346;2023-02-28T04:44:10;-4.70;99.90
9699;DHT22;10089;47.876;8.346;2023-02-28T04:46:48;-4.80;99.90
9699;DHT22;10089;47.876;8.346;2023-02-28T04:49:14;-4.90;99.90
9699;DHT22;10089;47.876;8.346;2023-02-28T04:51:41;-4.90;99.90
9699;DHT22;10089;47.876;8.346;2023-02-28T04:54:06;-4.90;99.90
9699;DHT22;10089;47.876;8.346;2023-02-28T04:56:33;-4.90;99.90
9699;DHT22;10089;47.876;8.346;2023-02-28T04:58:58;-5.00;99.90
9699;DHT22;10089;47.876;8.346;2023-02-28T05:01:30;-5.00;99.90
9699;DHT22;10089;47.876;8.346;2023-02-28T05:03:57;-5.00;99.90
9699;DHT22;10089;47.876;8.346;2023-02-28T05:06:25;-5.00;99.90
9699;DHT22;10089;47.876;8.346;2023-02-28T05:08:52;-5.00;99.90
9699;DHT22;10089;47.876;8.346;2023-02-28T05:11:32;-5.00;99.90
9699;DHT22;10089;47.876;8.346;2023-02-28T05:14:02;-5.00;99.90
9699;DHT22;10089;47.876;8.346;2023-02-28T05:16:29;-5.00;99.90
9699;DHT22;10089;47.876;8.346;2023-02-28T05:18:55;-5.00;99.90
9699;DHT22;10089;47.876;8.346;2023-02-28T05:21:30;-4.90;99.90
9699;DHT22;10089;47.876;8.346;2023-02-28T05:23:58;-4.90;99.90
9699;DHT22;10089;47.876;8.346;2023-02-28T05:26:25;-5.00;99.90
9699;DHT22;10089;47.876;8.346;2023-02-28T05:28:51;-5.00;99.90
9699;DHT22;10089;47.876;8.346;2023-02-28T05:31:17;-5.00;99.90
9699;DHT22;10089;47.876;8.346;2023-02-28T05:33:43;-5.00;99.90
9699;DHT22;10089;47.876;8.346;2023-02-28T05:36:09;-5.00;99.90
9699;DHT22;10089;47.876;8.346;2023-02-28T05:38:35;-5.00;99.90
9699;DHT22;10089;47.876;8.346;2023-02-28T05:41:07;-5.10;99.90
9699;DHT22;10089;47.876;8.346;2023-02-28T05:43:34;-5.00;99.90
9699;DHT22;10089;47.876;8.346;2023-02-28T05:46:05;-5.00;99.90
9699;DHT22;10089;47.876;8.346;2023-02-28T05:48:32;-4.90;99.90
9699;DHT22;10089;47.876;8.346;2023-02-28T05:50:58;-4.90;99.90
9699;DHT22;10089;47.876;8.346;2023-02-28T05:53:24;-5.00;99.90
9699;DHT22;10089;47.876;8.346;2023-02-28T05:55:50;-4.90;99.90
9699;DHT22;10089;47.876;8.346;2023-02-28T05:58:15;-4.90;99.90
9699;DHT22;10089;47.876;8.346;2023-02-28T06:00:41;-5.00;99.90
9699;DHT22;10089;47.876;8.346;2023-02-28T06:03:07;-5.00;99.90
9699;DHT22;10089;47.876;8.346;2023-02-28T06:05:33;-5.10;99.90
9699;DHT22;10089;47.876;8.346;2023-02-28T06:07:59;-4.50;99.90
9699;DHT22;10089;47.876;8.346;2023-02-28T06:10:26;-5.10;99.90
9699;DHT22;10089;47.876;8.346;2023-02-28T06:15:19;-5.00;99.90
9699;DHT22;10089;47.876;8.346;2023-02-28T06:17:46;-5.00;99.90
9699;DHT22;10089;47.876;8.346;2023-02-28T06:20:12;-5.00;99.90
9699;DHT22;10089;47.876;8.346;2023-02-28T06:22:40;-5.00;99.90
9699;DHT22;10089;47.876;8.346;2023-02-28T06:25:07;-4.90;99.90
9699;DHT22;10089;47.876;8.346;2023-02-28T06:27:33;-4.90;99.90
9699;DHT22;10089;47.876;8.346;2023-02-28T06:29:59;-5.00;99.90
9699;DHT22;10089;47.876;8.346;2023-02-28T06:32:25;-5.00;99.90
9699;DHT22;10089;47.876;8.346;2023-02-28T06:34:51;-4.90;99.90
9699;DHT22;10089;47.876;8.346;2023-02-28T06:37:17;-4.90;99.90
9699;DHT22;10089;47.876;8.346;2023-02-28T06:39:43;-5.00;99.90
9699;DHT22;10089;47.876;8.346;2023-02-28T06:42:09;-5.00;99.90
9699;DHT22;10089;47.876;8.346;2023-02-28T06:44:35;-5.00;99.90
9699;DHT22;10089;47.876;8.346;2023-02-28T06:47:05;-5.00;99.90
9699;DHT22;10089;47.876;8.346;2023-02-28T06:49:33;-5.00;99.90
9699;DHT22;10089;47.876;8.346;2023-02-28T06:51:59;-5.00;99.90
9699;DHT22;10089;47.876;8.346;2023-02-28T06:54:25;-5.00;99.90
9699;DHT22;10089;47.876;8.346;2023-02-28T06:56:50;-5.00;99.90
9699;DHT22;10089;47.876;8.346;2023-02-28T06:59:16;-5.00;99.90
9699;DHT22;10089;47.876;8.346;2023-02-28T07:01:42;-5.00;99.90
9699;DHT22;10089;47.876;8.346;2023-02-28T07:04:08;-4.90;99.90
9699;DHT22;10089;47.876;8.346;2023-02-28T07:06:34;-5.00;99.90
9699;DHT22;10089;47.876;8.346;2023-02-28T07:08:59;-5.00;99.90
9699;DHT22;10089;47.876;8.346;2023-02-28T07:11:27;-5.00;99.90
9699;DHT22;10089;47.876;8.346;2023-02-28T07:13:54;-5.00;99.90
9699;DHT22;10089;47.876;8.346;2023-02-28T07:16:20;-5.00;99.90
9699;DHT22;10089;47.876;8.346;2023-02-28T07:18:45;-5.00;99.90
9699;DHT22;10089;47.876;8.346;2023-02-28T07:21:11;-5.00;99.90
9699;DHT22;10089;47.876;8.346;2023-02-28T07:23:37;-5.00;99.90
9699;DHT22;10089;47.876;8.346;2023-02-28T07:26:04;-5.00;99.90
9699;DHT22;10089;47.876;8.346;2023-02-28T07:28:30;-5.00;99.90
9699;DHT22;10089;47.876;8.346;2023-02-28T07:30:56;-5.00;99.90
9699;DHT22;10089;47.876;8.346;2023-02-28T07:33:22;-5.00;99.90
9699;DHT22;10089;47.876;8.346;2023-02-28T07:35:49;-5.00;99.90
9699;DHT22;10089;47.876;8.346;2023-02-28T07:38:17;-5.00;99.90
9699;DHT22;10089;47.876;8.346;2023-02-28T07:40:43;-5.00;99.90
9699;DHT22;10089;47.876;8.346;2023-02-28T07:43:09;-4.90;99.90
9699;DHT22;10089;47.876;8.346;2023-02-28T07:45:34;-4.80;99.90
9699;DHT22;10089;47.876;8.346;2023-02-28T07:48:01;-4.80;99.90
9699;DHT22;10089;47.876;8.346;2023-02-28T07:50:27;-4.90;99.90
9699;DHT22;10089;47.876;8.346;2023-02-28T07:52:57;-4.80;99.90
9699;DHT22;10089;47.876;8.346;2023-02-28T07:55:23;-4.70;99.90
9699;DHT22;10089;47.876;8.346;2023-02-28T07:57:49;-4.70;99.90
9699;DHT22;10089;47.876;8.346;2023-02-28T08:00:15;-4.60;99.90
9699;DHT22;10089;47.876;8.346;2023-02-28T08:02:40;-4.60;99.90
9699;DHT22;10089;47.876;8.346;2023-02-28T08:05:07;-4.50;99.90
9699;DHT22;10089;47.876;8.346;2023-02-28T08:07:33;-4.60;99.90
9699;DHT22;10089;47.876;8.346;2023-02-28T08:09:59;-4.60;99.90
9699;DHT22;10089;47.876;8.346;2023-02-28T08:12:25;-4.50;99.90
9699;DHT22;10089;47.876;8.346;2023-02-28T08:14:51;-4.40;99.90
9699;DHT22;10089;47.876;8.346;2023-02-28T08:17:16;-4.70;99.90
9699;DHT22;10089;47.876;8.346;2023-02-28T08:19:44;-4.30;30.30
9699;DHT22;10089;47.876;8.346;2023-02-28T08:22:10;-4.40;25.00
9699;DHT22;10089;47.876;8.346;2023-02-28T08:24:35;-4.40;35.90
9699;DHT22;10089;47.876;8.346;2023-02-28T08:27:01;-4.40;8.30
9699;DHT22;10089;47.876;8.346;2023-02-28T08:29:27;-4.30;4.50
9699;DHT22;10089;47.876;8.346;2023-02-28T08:31:52;-4.20;6.70
9699;DHT22;10089;47.876;8.346;2023-02-28T08:34:18;-4.00;1.00
9699;DHT22;10089;47.876;8.346;2023-02-28T08:36:44;-4.00;1.00
9699;DHT22;10089;47.876;8.346;2023-02-28T08:39:12;-3.80;1.00
9699;DHT22;10089;47.876;8.346;2023-02-28T08:41:38;-4.00;1.00
9699;DHT22;10089;47.876;8.346;2023-02-28T08:44:04;-4.10;1.00
9699;DHT22;10089;47.876;8.346;2023-02-28T08:46:30;-4.00;1.00
9699;DHT22;10089;47.876;8.346;2023-02-28T08:48:56;-3.90;1.00
9699;DHT22;10089;47.876;8.346;2023-02-28T08:51:27;-3.90;1.00
9699;DHT22;10089;47.876;8.346;2023-02-28T08:53:54;-4.10;1.00
9699;DHT22;10089;47.876;8.346;2023-02-28T08:56:20;-3.90;1.00
9699;DHT22;10089;47.876;8.346;2023-02-28T08:58:48;-3.70;1.00
9699;DHT22;10089;47.876;8.346;2023-02-28T09:01:22;-3.60;1.00
9699;DHT22;10089;47.876;8.346;2023-02-28T09:03:49;-3.70;1.00
9699;DHT22;10089;47.876;8.346;2023-02-28T09:06:16;-3.70;1.00
9699;DHT22;10089;47.876;8.346;2023-02-28T09:08:43;-3.60;1.00
9699;DHT22;10089;47.876;8.346;2023-02-28T09:11:09;-3.60;1.00
9699;DHT22;10089;47.876;8.346;2023-02-28T09:13:35;-3.80;1.00
9699;DHT22;10089;47.876;8.346;2023-02-28T09:16:03;-3.60;1.00
9699;DHT22;10089;47.876;8.346;2023-02-28T09:18:29;-3.60;1.00
9699;DHT22;10089;47.876;8.346;2023-02-28T09:20:55;-3.70;1.00
9699;DHT22;10089;47.876;8.346;2023-02-28T09:23:21;-3.70;1.00
9699;DHT22;10089;47.876;8.346;2023-02-28T09:25:52;-3.80;1.00
9699;DHT22;10089;47.876;8.346;2023-02-28T09:28:19;-3.50;1.00
9699;DHT22;10089;47.876;8.346;2023-02-28T09:30:47;-3.50;1.00
9699;DHT22;10089;47.876;8.346;2023-02-28T09:33:14;-3.30;1.00
9699;DHT22;10089;47.876;8.346;2023-02-28T09:35:40;-3.20;1.00
9699;DHT22;10089;47.876;8.346;2023-02-28T09:38:06;-3.40;1.00
9699;DHT22;10089;47.876;8.346;2023-02-28T09:40:36;-3.30;1.00
9699;DHT22;10089;47.876;8.346;2023-02-28T09:43:02;-3.30;1.00
9699;DHT22;10089;47.876;8.346;2023-02-28T09:45:41;-3.40;1.00
9699;DHT22;10089;47.876;8.346;2023-02-28T09:48:14;-3.10;1.00
9699;DHT22;10089;47.876;8.346;2023-02-28T09:50:51;-3.30;1.00
9699;DHT22;10089;47.876;8.346;2023-02-28T09:53:30;-3.30;1.00
9699;DHT22;10089;47.876;8.346;2023-02-28T09:56:24;-3.00;1.00
9699;DHT22;10089;47.876;8.346;2023-02-28T10:01:57;-3.10;1.00
9699;DHT22;10089;47.876;8.346;2023-02-28T10:04:56;-3.10;1.00
9699;DHT22;10089;47.876;8.346;2023-02-28T10:10:20;-2.90;1.00
9699;DHT22;10089;47.876;8.346;2023-02-28T10:12:48;-2.70;1.00
9699;DHT22;10089;47.876;8.346;2023-02-28T10:15:19;-3.00;1.00
9699;DHT22;10089;47.876;8.346;2023-02-28T10:17:49;-1.80;1.00
9699;DHT22;10089;47.876;8.346;2023-02-28T10:20:22;-2.90;99.90
9699;DHT22;10089;47.876;8.346;2023-02-28T10:25:32;-2.70;99.90
9699;DHT22;10089;47.876;8.346;2023-02-28T10:28:13;-2.50;99.90
9699;DHT22;10089;47.876;8.346;2023-02-28T10:30:43;-1.50;99.90
9699;DHT22;10089;47.876;8.346;2023-02-28T10:35:49;-2.50;99.90
9699;DHT22;10089;47.876;8.346;2023-02-28T10:38:22;-2.70;99.90
9699;DHT22;10089;47.876;8.346;2023-02-28T10:40:48;-2.60;1.00
9699;DHT22;10089;47.876;8.346;2023-02-28T10:45:40;-1.00;99.90
9699;DHT22;10089;47.876;8.346;2023-02-28T10:58:31;-2.60;99.90
9699;DHT22;10089;47.876;8.346;2023-02-28T11:01:16;-2.80;99.90
9699;DHT22;10089;47.876;8.346;2023-02-28T11:03:43;-2.50;1.00
9699;DHT22;10089;47.876;8.346;2023-02-28T11:06:17;-2.50;99.90
9699;DHT22;10089;47.876;8.346;2023-02-28T11:08:55;-2.30;99.90
9699;DHT22;10089;47.876;8.346;2023-02-28T11:11:24;-2.10;99.90
9699;DHT22;10089;47.876;8.346;2023-02-28T11:13:56;-1.50;1.00
9699;DHT22;10089;47.876;8.346;2023-02-28T11:16:35;-2.20;99.90
9699;DHT22;10089;47.876;8.346;2023-02-28T11:19:03;-2.20;79.10
9699;DHT22;10089;47.876;8.346;2023-02-28T11:21:34;-2.40;99.90
9699;DHT22;10089;47.876;8.346;2023-02-28T11:24:29;-2.10;99.90
9699;DHT22;10089;47.876;8.346;2023-02-28T11:26:57;-2.00;99.90
9699;DHT22;10089;47.876;8.346;2023-02-28T11:32:05;-1.70;99.90
9699;DHT22;10089;47.876;8.346;2023-02-28T11:34:32;-1.90;2.90
9699;DHT22;10089;47.876;8.346;2023-02-28T11:36:59;-1.90;99.90
9699;DHT22;10089;47.876;8.346;2023-02-28T11:39:27;-1.80;99.90
9699;DHT22;10089;47.876;8.346;2023-02-28T11:42:05;-1.90;1.20
9699;DHT22;10089;47.876;8.346;2023-02-28T11:45:07;-1.70;1.00
9699;DHT22;10089;47.876;8.346;2023-02-28T11:48:09;-1.60;1.00
9699;DHT22;10089;47.876;8.346;2023-02-28T11:50:53;-1.60;1.00
9699;DHT22;10089;47.876;8.346;2023-02-28T11:53:39;-1.60;1.00
9699;DHT22;10089;47.876;8.346;2023-02-28T11:59:25;-1.70;1.00
9699;DHT22;10089;47.876;8.346;2023-02-28T12:27:00;-1.30;1.00
9699;DHT22;10089;47.876;8.346;2023-02-28T12:29:30;-1.40;1.00
9699;DHT22;10089;47.876;8.346;2023-02-28T12:32:14;-1.50;1.00
9699;DHT22;10089;47.876;8.346;2023-02-28T12:34:50;-1.40;99.90
9699;DHT22;10089;47.876;8.346;2023-02-28T12:37:29;0.00;99.90
9699;DHT22;10089;47.876;8.346;2023-02-28T12:40:02;0.50;99.90
9699;DHT22;10089;47.876;8.346;2023-02-28T12:42:40;-1.40;1.00
9699;DHT22;10089;47.876;8.346;2023-02-28T12:45:46;0.30;1.00
9699;DHT22;10089;47.876;8.346;2023-02-28T12:48:18;-1.30;99.90
9699;DHT22;10089;47.876;8.346;2023-02-28T12:50:45;-1.40;99.90
9699;DHT22;10089;47.876;8.346;2023-02-28T12:53:26;-1.40;99.90
9699;DHT22;10089;47.876;8.346;2023-02-28T12:56:07;-0.60;1.00
9699;DHT22;10089;47.876;8.346;2023-02-28T13:09:39;-1.80;1.00
9699;DHT22;10089;47.876;8.346;2023-02-28T13:12:13;-1.50;1.00
9699;DHT22;10089;47.876;8.346;2023-02-28T13:14:39;-1.40;1.00
9699;DHT22;10089;47.876;8.346;2023-02-28T13:22:38;-1.10;99.90
9699;DHT22;10089;47.876;8.346;2023-02-28T13:27:53;-1.10;99.90
9699;DHT22;10089;47.876;8.346;2023-02-28T13:33:36;-0.90;1.00
9699;DHT22;10089;47.876;8.346;2023-02-28T13:36:11;-1.10;99.90
9699;DHT22;10089;47.876;8.346;2023-02-28T13:48:02;-1.40;99.90
9699;DHT22;10089;47.876;8.346;2023-02-28T13:50:37;-1.10;1.00
9699;DHT22;10089;47.876;8.346;2023-02-28T14:01:27;-0.80;99.90
9699;DHT22;10089;47.876;8.346;2023-02-28T14:06:28;-0.70;99.90
9699;DHT22;10089;47.876;8.346;2023-02-28T14:09:06;-0.50;99.90
9699;DHT22;10089;47.876;8.346;2023-02-28T14:11:38;0.00;1.00
9699;DHT22;10089;47.876;8.346;2023-02-28T14:14:05;0.50;1.00
9699;DHT22;10089;47.876;8.346;2023-02-28T14:16:44;-1.00;1.00
9699;DHT22;10089;47.876;8.346;2023-02-28T14:19:14;-1.10;1.00
9699;DHT22;10089;47.876;8.346;2023-02-28T14:27:37;-1.30;1.00
9699;DHT22;10089;47.876;8.346;2023-02-28T14:39:13;-1.00;99.90
9699;DHT22;10089;47.876;8.346;2023-02-28T14:41:42;-0.90;99.90
9699;DHT22;10089;47.876;8.346;2023-02-28T14:44:20;0.80;99.90
9699;DHT22;10089;47.876;8.346;2023-02-28T14:46:52;-1.30;99.90
9699;DHT22;10089;47.876;8.346;2023-02-28T14:49:42;-1.50;1.00
9699;DHT22;10089;47.876;8.346;2023-02-28T14:52:17;0.40;1.00
9699;DHT22;10089;47.876;8.346;2023-02-28T14:54:44;-1.40;99.90
9699;DHT22;10089;47.876;8.346;2023-02-28T14:57:28;-1.40;99.90
9699;DHT22;10089;47.876;8.346;2023-02-28T15:00:18;-1.40;99.90
9699;DHT22;10089;47.876;8.346;2023-02-28T15:02:46;-1.30;99.90
9699;DHT22;10089;47.876;8.346;2023-02-28T15:05:36;-1.30;1.00
9699;DHT22;10089;47.876;8.346;2023-02-28T15:10:32;-1.40;15.40
9699;DHT22;10089;47.876;8.346;2023-02-28T15:13:05;-1.30;1.00
9699;DHT22;10089;47.876;8.346;2023-02-28T15:15:42;-1.40;1.00
9699;DHT22;10089;47.876;8.346;2023-02-28T15:20:46;-1.50;99.90
9699;DHT22;10089;47.876;8.346;2023-02-28T15:23:12;-1.50;1.00
9699;DHT22;10089;47.876;8.346;2023-02-28T15:25:39;-1.60;1.00
9699;DHT22;10089;47.876;8.346;2023-02-28T15:28:15;-1.50;1.00
9699;DHT22;10089;47.876;8.346;2023-02-28T15:30:52;-1.40;1.00
9699;DHT22;10089;47.876;8.346;2023-02-28T15:33:20;-1.40;1.00
9699;DHT22;10089;47.876;8.346;2023-02-28T15:35:47;-1.40;1.00
9699;DHT22;10089;47.876;8.346;2023-02-28T15:41:00;-1.40;99.90
9699;DHT22;10089;47.876;8.346;2023-02-28T15:43:30;-1.40;1.00
9699;DHT22;10089;47.876;8.346;2023-02-28T15:46:00;-1.30;99.90
9699;DHT22;10089;47.876;8.346;2023-02-28T15:48:34;-1.40;1.00
9699;DHT22;10089;47.876;8.346;2023-02-28T15:53:57;-1.60;1.00
9699;DHT22;10089;47.876;8.346;2023-02-28T15:59:05;-1.50;1.00
9699;DHT22;10089;47.876;8.346;2023-02-28T16:01:37;-1.50;1.00
9699;DHT22;10089;47.876;8.346;2023-02-28T16:04:11;-1.50;1.00
9699;DHT22;10089;47.876;8.346;2023-02-28T16:06:59;-1.50;1.00
9699;DHT22;10089;47.876;8.346;2023-02-28T16:09:26;-1.50;1.00
9699;DHT22;10089;47.876;8.346;2023-02-28T16:11:54;-1.50;1.00
9699;DHT22;10089;47.876;8.346;2023-02-28T16:14:26;-1.10;1.00
9699;DHT22;10089;47.876;8.346;2023-02-28T16:17:15;-1.60;1.00
9699;DHT22;10089;47.876;8.346;2023-02-28T16:19:42;-1.60;1.00
9699;DHT22;10089;47.876;8.346;2023-02-28T16:22:09;0.10;1.00
9699;DHT22;10089;47.876;8.346;2023-02-28T16:24:35;-1.50;1.00
9699;DHT22;10089;47.876;8.346;2023-02-28T16:27:01;-1.40;99.90
9699;DHT22;10089;47.876;8.346;2023-02-28T16:29:29;-1.30;1.00
9699;DHT22;10089;47.876;8.346;2023-02-28T16:31:56;-1.30;1.00
9699;DHT22;10089;47.876;8.346;2023-02-28T16:34:22;-1.50;1.00
9699;DHT22;10089;47.876;8.346;2023-02-28T16:36:48;-1.50;1.00
9699;DHT22;10089;47.876;8.346;2023-02-28T16:39:14;-1.60;1.00
9699;DHT22;10089;47.876;8.346;2023-02-28T16:41:43;-1.60;1.00
9699;DHT22;10089;47.876;8.346;2023-02-28T16:44:13;-1.70;1.00
9699;DHT22;10089;47.876;8.346;2023-02-28T16:46:39;-1.70;1.00
9699;DHT22;10089;47.876;8.346;2023-02-28T16:49:08;-1.70;1.00
9699;DHT22;10089;47.876;8.346;2023-02-28T16:51:35;-1.80;1.00
9699;DHT22;10089;47.876;8.346;2023-02-28T16:54:01;-1.80;25.80
9699;DHT22;10089;47.876;8.346;2023-02-28T16:56:27;-1.80;48.70
9699;DHT22;10089;47.876;8.346;2023-02-28T16:58:58;-1.80;23.90
9699;DHT22;10089;47.876;8.346;2023-02-28T17:01:24;-1.80;1.00
9699;DHT22;10089;47.876;8.346;2023-02-28T17:03:52;-1.80;1.00
9699;DHT22;10089;47.876;8.346;2023-02-28T17:06:27;-1.90;8.30
9699;DHT22;10089;47.876;8.346;2023-02-28T17:08:54;-2.00;99.90
9699;DHT22;10089;47.876;8.346;2023-02-28T17:11:20;-2.00;99.90
9699;DHT22;10089;47.876;8.346;2023-02-28T17:13:47;-2.10;99.90
9699;DHT22;10089;47.876;8.346;2023-02-28T17:16:33;-1.10;99.90
9699;DHT22;10089;47.876;8.346;2023-02-28T17:19:02;-2.10;99.90
9699;DHT22;10089;47.876;8.346;2023-02-28T17:21:28;-2.20;99.90
9699;DHT22;10089;47.876;8.346;2023-02-28T17:23:54;-2.30;99.90
9699;DHT22;10089;47.876;8.346;2023-02-28T17:26:21;-2.30;99.90
9699;DHT22;10089;47.876;8.346;2023-02-28T17:28:50;-2.30;99.90
9699;DHT22;10089;47.876;8.346;2023-02-28T17:31:16;-2.20;99.90
9699;DHT22;10089;47.876;8.346;2023-02-28T17:33:43;-2.20;99.90
9699;DHT22;10089;47.876;8.346;2023-02-28T17:36:21;-2.00;99.90
9699;DHT22;10089;47.876;8.346;2023-02-28T17:38:48;-2.30;99.90
9699;DHT22;10089;47.876;8.346;2023-02-28T17:41:13;-2.30;99.90
9699;DHT22;10089;47.876;8.346;2023-02-28T17:43:39;-2.20;99.90
9699;DHT22;10089;47.876;8.346;2023-02-28T17:46:09;-2.30;99.90
9699;DHT22;10089;47.876;8.346;2023-02-28T17:48:39;-2.30;99.90
9699;DHT22;10089;47.876;8.346;2023-02-28T17:51:05;-2.30;99.90
9699;DHT22;10089;47.876;8.346;2023-02-28T17:53:31;-2.40;99.90
9699;DHT22;10089;47.876;8.346;2023-02-28T17:55:56;-2.30;99.90
9699;DHT22;10089;47.876;8.346;2023-02-28T17:58:22;-2.30;1.00
9699;DHT22;10089;47.876;8.346;2023-02-28T18:00:47;-2.40;1.00
9699;DHT22;10089;47.876;8.346;2023-02-28T18:03:19;-2.40;1.00
9699;DHT22;10089;47.876;8.346;2023-02-28T18:05:46;-2.40;1.00
9699;DHT22;10089;47.876;8.346;2023-02-28T18:08:12;-2.40;1.00
9699;DHT22;10089;47.876;8.346;2023-02-28T18:10:38;-2.50;1.00
9699;DHT22;10089;47.876;8.346;2023-02-28T18:13:04;-2.40;1.00
9699;DHT22;10089;47.876;8.346;2023-02-28T18:15:30;-2.40;1.00
9699;DHT22;10089;47.876;8.346;2023-02-28T18:17:56;-2.40;1.00
9699;DHT22;10089;47.876;8.346;2023-02-28T18:20:22;-2.30;1.00
9699;DHT22;10089;47.876;8.346;2023-02-28T18:22:47;-2.40;1.00
9699;DHT22;10089;47.876;8.346;2023-02-28T18:25:13;-2.30;1.00
9699;DHT22;10089;47.876;8.346;2023-02-28T18:27:42;-1.80;1.00
9699;DHT22;10089;47.876;8.346;2023-02-28T18:30:19;-2.30;1.00
9699;DHT22;10089;47.876;8.346;2023-02-28T18:32:45;-2.30;1.00
9699;DHT22;10089;47.876;8.346;2023-02-28T18:35:11;-2.30;1.00
9699;DHT22;10089;47.876;8.346;2023-02-28T18:37:36;-2.40;1.00
9699;DHT22;10089;47.876;8.346;2023-02-28T18:40:03;-2.40;1.00
9699;DHT22;10089;47.876;8.346;2023-02-28T18:42:29;-2.50;1.00
9699;DHT22;10089;47.876;8.346;2023-02-28T18:44:54;-2.40;1.00
9699;DHT22;10089;47.876;8.346;2023-02-28T18:47:20;-2.40;1.00
9699;DHT22;10089;47.876;8.346;2023-02-28T18:49:46;-2.40;1.00
9699;DHT22;10089;47.876;8.346;2023-02-28T18:52:12;-2.40;1.00
9699;DHT22;10089;47.876;8.346;2023-02-28T18:54:37;-2.30;1.00
9699;DHT22;10089;47.876;8.346;2023-02-28T18:57:03;-2.20;1.00